sensor_id;sensor_type;location;lat;lon;timestamp;temperature;humidity
5775;DHT22;2913;51.120;6.772;2023-06-19T00:00:22;23.30;99.90
5775;DHT22;2913;51.120;6.772;2023-06-19T00:02:47;23.30;99.90
5775;DHT22;2913;51.120;6.772;2023-06-19T00:05:15;23.30;99.90
5775;DHT22;2913;51.120;6.772;2023-06-19T00:07:41;23.30;99.90
5775;DHT22;2913;51.120;6.772;2023-06-19T00:10:06;23.30;99.90
5775;DHT22;2913;51.120;6.772;2023-06-19T00:12:33;23.20;99.90
5775;DHT22;2913;51.120;6.772;2023-06-19T00:14:59;23.20;99.90
5775;DHT22;2913;51.120;6.772;2023-06-19T00:17:25;23.10;99.90
5775;DHT22;2913;51.120;6.772;2023-06-19T00:19:55;23.00;99.90
5775;DHT22;2913;51.120;6.772;2023-06-19T00:22:21;23.00;99.90
5775;DHT22;2913;51.120;6.772;2023-06-19T00:24:47;23.10;99.90
5775;DHT22;2913;51.120;6.772;2023-06-19T00:27:15;23.00;99.90
5775;DHT22;2913;51.120;6.772;2023-06-19T00:29:41;23.00;99.90
5775;DHT22;2913;51.120;6.772;2023-06-19T00:32:06;23.00;99.90
5775;DHT22;2913;51.120;6.772;2023-06-19T00:34:32;23.00;99.90
5775;DHT22;2913;51.120;6.772;2023-06-19T00:36:58;22.90;99.90
5775;DHT22;2913;51.120;6.772;2023-06-19T00:39:25;22.90;99.90
5775;DHT22;2913;51.120;6.772;2023-06-19T00:41:57;22.90;99.90
5775;DHT22;2913;51.120;6.772;2023-06-19T00:44:22;22.90;99.90
5775;DHT22;2913;51.120;6.772;2023-06-19T00:46:57;22.80;99.90
5775;DHT22;2913;51.120;6.772;2023-06-19T00:49:23;22.80;99.90
5775;DHT22;2913;51.120;6.772;2023-06-19T00:51:51;22.70;99.90
5775;DHT22;2913;51.120;6.772;2023-06-19T00:54:17;22.70;99.90
5775;DHT22;2913;51.120;6.772;2023-06-19T00:56:45;22.70;99.90
5775;DHT22;2913;51.120;6.772;2023-06-19T00:59:16;22.70;99.90
5775;DHT22;2913;51.120;6.772;2023-06-19T01:01:45;22.70;99.90
5775;DHT22;2913;51.120;6.772;2023-06-19T01:04:13;22.70;99.90
5775;DHT22;2913;51.120;6.772;2023-06-19T01:06:54;22.80;99.90
5775;DHT22;2913;51.120;6.772;2023-06-19T01:09:28;22.80;99.90
5775;DHT22;2913;51.120;6.772;2023-06-19T01:11:59;22.80;99.90
5775;DHT22;2913;51.120;6.772;2023-06-19T01:14:50;22.80;99.90
5775;DHT22;2913;51.120;6.772;2023-06-19T01:17:21;22.80;99.90
5775;DHT22;2913;51.120;6.772;2023-06-19T01:19:48;22.70;99.90
5775;DHT22;2913;51.120;6.772;2023-06-19T01:22:26;22.70;99.90
5775;DHT22;2913;51.120;6.772;2023-06-19T01:24:52;22.70;99.90
5775;DHT22;2913;51.120;6.772;2023-06-19T01:27:20;22.70;99.90
5775;DHT22;2913;51.120;6.772;2023-06-19T01:29:45;22.60;99.90
5775;DHT22;2913;51.120;6.772;2023-06-19T01:32:17;22.60;99.90
5775;DHT22;2913;51.120;6.772;2023-06-19T01:34:45;22.60;99.90
5775;DHT22;2913;51.120;6.772;2023-06-19T01:37:11;22.50;99.90
5775;DHT22;2913;51.120;6.772;2023-06-19T01:39:38;22.50;99.90
5775;DHT22;2913;51.120;6.772;2023-06-19T01:42:04;22.40;99.90
5775;DHT22;2913;51.120;6.772;2023-06-19T01:44:31;22.40;99.90
5775;DHT22;2913;51.120;6.772;2023-06-19T01:46:59;22.30;99.90
5775;DHT22;2913;51.120;6.772;2023-06-19T01:49:27;22.30;99.90
5775;DHT22;2913;51.120;6.772;2023-06-19T01:51:53;22.30;99.90
5775;DHT22;2913;51.120;6.772;2023-06-19T01:54:21;22.30;99.90
5775;DHT22;2913;51.120;6.772;2023-06-19T01:56:46;22.20;99.90
5775;DHT22;2913;51.120;6.772;2023-06-19T01:59:12;22.20;99.90
5775;DHT22;2913;51.120;6.772;2023-06-19T02:01:38;22.10;99.90
5775;DHT22;2913;51.120;6.772;2023-06-19T02:04:03;22.20;99.90
5775;DHT22;2913;51.120;6.772;2023-06-19T02:08:58;22.10;99.90
5775;DHT22;2913;51.120;6.772;2023-06-19T02:11:24;22.10;99.90
5775;DHT22;2913;51.120;6.772;2023-06-19T02:13:49;22.00;99.90
5775;DHT22;2913;51.120;6.772;2023-06-19T02:16:19;22.10;99.90
5775;DHT22;2913;51.120;6.772;2023-06-19T02:18:47;22.00;99.90
5775;DHT22;2913;51.120;6.772;2023-06-19T02:21:13;22.00;99.90
5775;DHT22;2913;51.120;6.772;2023-06-19T02:23:38;22.00;99.90
5775;DHT22;2913;51.120;6.772;2023-06-19T02:26:04;21.90;99.90
5775;DHT22;2913;51.120;6.772;2023-06-19T02:28:32;22.00;99.90
5775;DHT22;2913;51.120;6.772;2023-06-19T02:30:58;22.00;99.90
5775;DHT22;2913;51.120;6.772;2023-06-19T02:33:23;22.10;99.90
5775;DHT22;2913;51.120;6.772;2023-06-19T02:35:49;22.10;99.90
5775;DHT22;2913;51.120;6.772;2023-06-19T02:38:16;22.00;99.90
5775;DHT22;2913;51.120;6.772;2023-06-19T02:40:48;22.10;99.90
5775;DHT22;2913;51.120;6.772;2023-06-19T02:43:14;22.10;99.90
5775;DHT22;2913;51.120;6.772;2023-06-19T02:45:43;22.10;99.90
5775;DHT22;2913;51.120;6.772;2023-06-19T02:48:09;22.10;99.90
5775;DHT22;2913;51.120;6.772;2023-06-19T02:50:35;22.10;99.90
5775;DHT22;2913;51.120;6.772;2023-06-19T02:53:01;22.10;99.90
5775;DHT22;2913;51.120;6.772;2023-06-19T02:55:26;22.00;99.90
5775;DHT22;2913;51.120;6.772;2023-06-19T02:57:52;22.00;99.90
5775;DHT22;2913;51.120;6.772;2023-06-19T03:00:18;22.00;99.90
5775;DHT22;2913;51.120;6.772;2023-06-19T03:02:43;22.00;99.90
5775;DHT22;2913;51.120;6.772;2023-06-19T03:05:11;22.00;99.90
5775;DHT22;2913;51.120;6.772;2023-06-19T03:07:38;21.90;99.90
5775;DHT22;2913;51.120;6.772;2023-06-19T03:10:04;21.80;99.90
5775;DHT22;2913;51.120;6.772;2023-06-19T03:12:32;21.80;99.90
5775;DHT22;2913;51.120;6.772;2023-06-19T03:14:58;21.60;99.90
5775;DHT22;2913;51.120;6.772;2023-06-19T03:17:23;21.60;99.90
5775;DHT22;2913;51.120;6.772;2023-06-19T03:19:51;21.60;99.90
5775;DHT22;2913;51.120;6.772;2023-06-19T03:22:19;21.60;99.90
5775;DHT22;2913;51.120;6.772;2023-06-19T03:24:44;21.60;99.90
5775;DHT22;2913;51.120;6.772;2023-06-19T03:27:10;21.50;99.90
5775;DHT22;2913;51.120;6.772;2023-06-19T03:29:36;21.50;99.90
5775;DHT22;2913;51.120;6.772;2023-06-19T03:32:01;21.40;99.90
5775;DHT22;2913;51.120;6.772;2023-06-19T03:34:27;21.50;99.90
5775;DHT22;2913;51.120;6.772;2023-06-19T03:36:52;21.50;99.90
5775;DHT22;2913;51.120;6.772;2023-06-19T03:39:20;21.50;99.90
5775;DHT22;2913;51.120;6.772;2023-06-19T03:41:46;21.50;99.90
5775;DHT22;2913;51.120;6.772;2023-06-19T03:44:11;21.50;99.90
5775;DHT22;2913;51.120;6.772;2023-06-19T03:46:39;21.50;99.90
5775;DHT22;2913;51.120;6.772;2023-06-19T03:49:07;21.50;99.90
5775;DHT22;2913;51.120;6.772;2023-06-19T03:51:34;21.50;99.90
5775;DHT22;2913;51.120;6.772;2023-06-19T03:54:00;21.50;99.90
5775;DHT22;2913;51.120;6.772;2023-06-19T03:56:26;21.50;99.90
5775;DHT22;2913;51.120;6.772;2023-06-19T03:58:54;21.50;99.90
5775;DHT22;2913;51.120;6.772;2023-06-19T04:01:19;21.50;99.90
5775;DHT22;2913;51.120;6.772;2023-06-19T04:03:45;21.60;99.90
5775;DHT22;2913;51.120;6.772;2023-06-19T04:06:13;21.60;99.90
5775;DHT22;2913;51.120;6.772;2023-06-19T04:08:38;21.50;99.90
5775;DHT22;2913;51.120;6.772;2023-06-19T04:11:04;21.70;99.90
5775;DHT22;2913;51.120;6.772;2023-06-19T04:13:30;21.70;99.90
5775;DHT22;2913;51.120;6.772;2023-06-19T04:15:58;21.80;99.90
5775;DHT22;2913;51.120;6.772;2023-06-19T04:18:23;21.80;99.90
5775;DHT22;2913;51.120;6.772;2023-06-19T04:20:49;21.80;99.90
5775;DHT22;2913;51.120;6.772;2023-06-19T04:23:16;21.60;99.90
5775;DHT22;2913;51.120;6.772;2023-06-19T04:28:08;21.70;99.90
5775;DHT22;2913;51.120;6.772;2023-06-19T04:30:34;21.70;99.90
5775;DHT22;2913;51.120;6.772;2023-06-19T04:32:59;21.80;99.90
5775;DHT22;2913;51.120;6.772;2023-06-19T04:40:17;22.00;99.90
5775;DHT22;2913;51.120;6.772;2023-06-19T04:42:43;22.10;99.90
5775;DHT22;2913;51.120;6.772;2023-06-19T04:45:11;22.10;99.90
5775;DHT22;2913;51.120;6.772;2023-06-19T04:47:37;22.20;99.90
5775;DHT22;2913;51.120;6.772;2023-06-19T04:50:06;22.30;99.90
5775;DHT22;2913;51.120;6.772;2023-06-19T04:52:32;22.50;99.90
5775;DHT22;2913;51.120;6.772;2023-06-19T04:54:58;23.20;99.90
5775;DHT22;2913;51.120;6.772;2023-06-19T04:57:26;23.50;99.90
5775;DHT22;2913;51.120;6.772;2023-06-19T04:59:54;23.60;99.90
5775;DHT22;2913;51.120;6.772;2023-06-19T05:02:19;23.30;99.90
5775;DHT22;2913;51.120;6.772;2023-06-19T05:04:45;23.10;99.90
5775;DHT22;2913;51.120;6.772;2023-06-19T05:07:10;22.90;99.90
5775;DHT22;2913;51.120;6.772;2023-06-19T05:09:38;22.80;99.90
5775;DHT22;2913;51.120;6.772;2023-06-19T05:12:04;22.90;99.90
5775;DHT22;2913;51.120;6.772;2023-06-19T05:14:31;23.90;99.90
5775;DHT22;2913;51.120;6.772;2023-06-19T05:16:57;24.80;99.90
5775;DHT22;2913;51.120;6.772;2023-06-19T05:19:25;25.60;99.90
5775;DHT22;2913;51.120;6.772;2023-06-19T05:21:51;26.00;99.90
5775;DHT22;2913;51.120;6.772;2023-06-19T05:24:19;26.60;99.90
5775;DHT22;2913;51.120;6.772;2023-06-19T05:26:44;27.00;99.90
5775;DHT22;2913;51.120;6.772;2023-06-19T05:29:10;27.70;99.90
5775;DHT22;2913;51.120;6.772;2023-06-19T05:31:36;27.40;99.90
5775;DHT22;2913;51.120;6.772;2023-06-19T05:34:04;27.00;99.90
5775;DHT22;2913;51.120;6.772;2023-06-19T05:36:32;27.00;99.90
5775;DHT22;2913;51.120;6.772;2023-06-19T05:38:57;26.60;99.90
5775;DHT22;2913;51.120;6.772;2023-06-19T05:41:23;26.20;99.90
5775;DHT22;2913;51.120;6.772;2023-06-19T05:43:51;25.80;99.90
5775;DHT22;2913;51.120;6.772;2023-06-19T05:46:16;25.60;99.90
5775;DHT22;2913;51.120;6.772;2023-06-19T05:48:42;25.40;99.90
5775;DHT22;2913;51.120;6.772;2023-06-19T05:51:07;25.10;99.90
5775;DHT22;2913;51.120;6.772;2023-06-19T05:53:33;24.90;99.90
5775;DHT22;2913;51.120;6.772;2023-06-19T05:55:59;24.70;99.90
5775;DHT22;2913;51.120;6.772;2023-06-19T05:58:24;24.70;99.90
5775;DHT22;2913;51.120;6.772;2023-06-19T06:00:51;24.50;99.90
5775;DHT22;2913;51.120;6.772;2023-06-19T06:03:23;24.40;99.90
5775;DHT22;2913;51.120;6.772;2023-06-19T06:05:49;24.30;99.90
5775;DHT22;2913;51.120;6.772;2023-06-19T06:08:17;24.40;99.90
5775;DHT22;2913;51.120;6.772;2023-06-19T06:10:43;24.40;99.90
5775;DHT22;2913;51.120;6.772;2023-06-19T06:13:08;24.40;99.90
5775;DHT22;2913;51.120;6.772;2023-06-19T06:15:34;24.40;99.90
5775;DHT22;2913;51.120;6.772;2023-06-19T06:18:00;24.40;99.90
5775;DHT22;2913;51.120;6.772;2023-06-19T06:20:26;24.40;99.90
5775;DHT22;2913;51.120;6.772;2023-06-19T06:22:54;24.50;99.90
5775;DHT22;2913;51.120;6.772;2023-06-19T06:25:19;24.60;99.90
5775;DHT22;2913;51.120;6.772;2023-06-19T06:27:50;24.70;99.90
5775;DHT22;2913;51.120;6.772;2023-06-19T06:30:16;24.90;99.90
5775;DHT22;2913;51.120;6.772;2023-06-19T06:32:44;24.80;99.90
5775;DHT22;2913;51.120;6.772;2023-06-19T06:35:12;24.90;99.90
5775;DHT22;2913;51.120;6.772;2023-06-19T06:37:38;24.80;99.90
5775;DHT22;2913;51.120;6.772;2023-06-19T06:40:07;24.90;99.90
5775;DHT22;2913;51.120;6.772;2023-06-19T06:42:39;24.90;99.90
5775;DHT22;2913;51.120;6.772;2023-06-19T06:45:05;24.80;99.90
5775;DHT22;2913;51.120;6.772;2023-06-19T06:47:32;24.80;99.90
5775;DHT22;2913;51.120;6.772;2023-06-19T06:49:57;24.70;99.90
5775;DHT22;2913;51.120;6.772;2023-06-19T06:52:23;24.70;99.90
5775;DHT22;2913;51.120;6.772;2023-06-19T06:54:51;24.70;99.90
5775;DHT22;2913;51.120;6.772;2023-06-19T06:57:19;24.60;99.90
5775;DHT22;2913;51.120;6.772;2023-06-19T06:59:47;24.60;99.90
5775;DHT22;2913;51.120;6.772;2023-06-19T07:02:15;24.50;99.90
5775;DHT22;2913;51.120;6.772;2023-06-19T07:04:40;24.50;99.90
5775;DHT22;2913;51.120;6.772;2023-06-19T07:07:08;24.60;99.90
5775;DHT22;2913;51.120;6.772;2023-06-19T07:09:34;24.50;99.90
5775;DHT22;2913;51.120;6.772;2023-06-19T07:12:00;24.40;99.90
5775;DHT22;2913;51.120;6.772;2023-06-19T07:14:27;24.40;99.90
5775;DHT22;2913;51.120;6.772;2023-06-19T07:16:55;24.40;99.90
5775;DHT22;2913;51.120;6.772;2023-06-19T07:19:25;24.50;99.90
5775;DHT22;2913;51.120;6.772;2023-06-19T07:21:53;24.50;99.90
5775;DHT22;2913;51.120;6.772;2023-06-19T07:24:21;24.50;99.90
5775;DHT22;2913;51.120;6.772;2023-06-19T07:26:47;24.50;99.90
5775;DHT22;2913;51.120;6.772;2023-06-19T07:29:12;24.40;99.90
5775;DHT22;2913;51.120;6.772;2023-06-19T07:31:38;24.30;99.90
5775;DHT22;2913;51.120;6.772;2023-06-19T07:34:04;24.30;99.90
5775;DHT22;2913;51.120;6.772;2023-06-19T07:36:32;24.20;99.90
5775;DHT22;2913;51.120;6.772;2023-06-19T07:38:57;24.10;99.90
5775;DHT22;2913;51.120;6.772;2023-06-19T07:41:25;23.90;99.90
5775;DHT22;2913;51.120;6.772;2023-06-19T07:43:53;24.00;99.90
5775;DHT22;2913;51.120;6.772;2023-06-19T07:46:19;24.00;99.90
5775;DHT22;2913;51.120;6.772;2023-06-19T07:48:46;24.10;99.90
5775;DHT22;2913;51.120;6.772;2023-06-19T07:51:16;24.20;99.90
5775;DHT22;2913;51.120;6.772;2023-06-19T07:53:42;24.30;99.90
5775;DHT22;2913;51.120;6.772;2023-06-19T07:56:09;24.20;99.90
5775;DHT22;2913;51.120;6.772;2023-06-19T07:58:35;24.20;99.90
5775;DHT22;2913;51.120;6.772;2023-06-19T08:01:03;24.20;99.90
5775;DHT22;2913;51.120;6.772;2023-06-19T08:03:31;24.20;99.90
5775;DHT22;2913;51.120;6.772;2023-06-19T08:05:56;24.20;99.90
5775;DHT22;2913;51.120;6.772;2023-06-19T08:08:24;24.20;99.90
5775;DHT22;2913;51.120;6.772;2023-06-19T08:10:50;24.30;99.90
5775;DHT22;2913;51.120;6.772;2023-06-19T08:13:16;24.50;99.90
5775;DHT22;2913;51.120;6.772;2023-06-19T08:15:41;24.50;99.90
5775;DHT22;2913;51.120;6.772;2023-06-19T08:18:08;24.70;99.90
5775;DHT22;2913;51.120;6.772;2023-06-19T08:20:34;24.80;99.90
5775;DHT22;2913;51.120;6.772;2023-06-19T08:22:59;25.20;99.90
5775;DHT22;2913;51.120;6.772;2023-06-19T08:25:25;25.30;99.90
5775;DHT22;2913;51.120;6.772;2023-06-19T08:27:51;25.40;99.90
5775;DHT22;2913;51.120;6.772;2023-06-19T08:30:16;25.60;99.90
5775;DHT22;2913;51.120;6.772;2023-06-19T08:32:46;25.80;99.90
5775;DHT22;2913;51.120;6.772;2023-06-19T08:35:17;25.90;99.90
5775;DHT22;2913;51.120;6.772;2023-06-19T08:37:43;26.30;99.90
5775;DHT22;2913;51.120;6.772;2023-06-19T08:40:09;26.70;99.90
5775;DHT22;2913;51.120;6.772;2023-06-19T08:42:36;27.00;99.90
5775;DHT22;2913;51.120;6.772;2023-06-19T08:45:02;27.30;99.90
5775;DHT22;2913;51.120;6.772;2023-06-19T08:47:34;27.30;99.90
5775;DHT22;2913;51.120;6.772;2023-06-19T08:50:02;27.50;99.90
5775;DHT22;2913;51.120;6.772;2023-06-19T08:52:28;27.60;99.90
5775;DHT22;2913;51.120;6.772;2023-06-19T08:54:54;27.40;99.70
5775;DHT22;2913;51.120;6.772;2023-06-19T08:57:32;27.60;99.30
5775;DHT22;2913;51.120;6.772;2023-06-19T08:59:57;27.60;98.60
5775;DHT22;2913;51.120;6.772;2023-06-19T09:02:23;27.60;99.10
5775;DHT22;2913;51.120;6.772;2023-06-19T09:04:48;27.30;97.60
5775;DHT22;2913;51.120;6.772;2023-06-19T09:07:16;27.50;97.80
5775;DHT22;2913;51.120;6.772;2023-06-19T09:09:48;27.50;96.90
5775;DHT22;2913;51.120;6.772;2023-06-19T09:12:16;27.60;97.60
5775;DHT22;2913;51.120;6.772;2023-06-19T09:14:45;27.60;96.60
5775;DHT22;2913;51.120;6.772;2023-06-19T09:17:19;27.70;95.90
5775;DHT22;2913;51.120;6.772;2023-06-19T09:19:52;27.70;95.00
5775;DHT22;2913;51.120;6.772;2023-06-19T09:22:20;27.70;94.60
5775;DHT22;2913;51.120;6.772;2023-06-19T09:24:49;27.60;94.80
5775;DHT22;2913;51.120;6.772;2023-06-19T09:27:19;27.50;95.30
5775;DHT22;2913;51.120;6.772;2023-06-19T09:29:49;27.50;95.00
5775;DHT22;2913;51.120;6.772;2023-06-19T09:34:51;27.50;93.50
5775;DHT22;2913;51.120;6.772;2023-06-19T09:37:27;27.70;93.80
5775;DHT22;2913;51.120;6.772;2023-06-19T09:40:01;27.80;93.60
5775;DHT22;2913;51.120;6.772;2023-06-19T09:42:36;27.70;94.10
5775;DHT22;2913;51.120;6.772;2023-06-19T09:47:38;27.70;94.40
5775;DHT22;2913;51.120;6.772;2023-06-19T09:50:04;27.60;93.40
5775;DHT22;2913;51.120;6.772;2023-06-19T09:52:31;27.80;93.10
5775;DHT22;2913;51.120;6.772;2023-06-19T09:54:57;27.60;92.80
5775;DHT22;2913;51.120;6.772;2023-06-19T09:57:23;27.60;93.30
5775;DHT22;2913;51.120;6.772;2023-06-19T09:59:56;27.40;93.60
5775;DHT22;2913;51.120;6.772;2023-06-19T10:02:25;27.40;93.30
5775;DHT22;2913;51.120;6.772;2023-06-19T10:04:56;27.50;92.80
5775;DHT22;2913;51.120;6.772;2023-06-19T10:07:25;27.50;91.60
5775;DHT22;2913;51.120;6.772;2023-06-19T10:12:41;27.50;90.90
5775;DHT22;2913;51.120;6.772;2023-06-19T10:18:02;27.50;90.70
5775;DHT22;2913;51.120;6.772;2023-06-19T10:20:37;27.70;90.50
5775;DHT22;2913;51.120;6.772;2023-06-19T10:25:45;28.00;91.20
5775;DHT22;2913;51.120;6.772;2023-06-19T10:28:32;28.10;91.00
5775;DHT22;2913;51.120;6.772;2023-06-19T10:31:08;28.10;90.40
5775;DHT22;2913;51.120;6.772;2023-06-19T10:33:37;28.00;89.70
5775;DHT22;2913;51.120;6.772;2023-06-19T10:36:21;28.10;89.30
5775;DHT22;2913;51.120;6.772;2023-06-19T10:38:51;28.20;88.20
5775;DHT22;2913;51.120;6.772;2023-06-19T10:41:18;28.30;87.90
5775;DHT22;2913;51.120;6.772;2023-06-19T10:44:00;28.30;86.60
5775;DHT22;2913;51.120;6.772;2023-06-19T10:46:30;28.30;87.20
5775;DHT22;2913;51.120;6.772;2023-06-19T10:48:59;28.40;86.80
5775;DHT22;2913;51.120;6.772;2023-06-19T10:53:57;28.30;85.70
5775;DHT22;2913;51.120;6.772;2023-06-19T10:56:28;28.10;87.30
5775;DHT22;2913;51.120;6.772;2023-06-19T10:59:04;27.90;87.20
5775;DHT22;2913;51.120;6.772;2023-06-19T11:01:41;28.10;87.30
5775;DHT22;2913;51.120;6.772;2023-06-19T11:04:11;28.30;86.10
5775;DHT22;2913;51.120;6.772;2023-06-19T11:06:42;28.70;85.70
5775;DHT22;2913;51.120;6.772;2023-06-19T11:09:09;28.70;85.00
5775;DHT22;2913;51.120;6.772;2023-06-19T11:14:06;28.70;82.60
5775;DHT22;2913;51.120;6.772;2023-06-19T11:16:32;28.80;82.00
5775;DHT22;2913;51.120;6.772;2023-06-19T11:18:58;29.10;81.70
5775;DHT22;2913;51.120;6.772;2023-06-19T11:21:34;29.10;78.90
5775;DHT22;2913;51.120;6.772;2023-06-19T11:24:11;29.30;78.40
5775;DHT22;2913;51.120;6.772;2023-06-19T11:26:44;29.30;77.10
5775;DHT22;2913;51.120;6.772;2023-06-19T11:31:44;29.40;77.70
5775;DHT22;2913;51.120;6.772;2023-06-19T11:34:10;29.20;77.10
5775;DHT22;2913;51.120;6.772;2023-06-19T11:36:38;29.50;75.50
5775;DHT22;2913;51.120;6.772;2023-06-19T11:39:14;29.50;76.50
5775;DHT22;2913;51.120;6.772;2023-06-19T11:41:41;29.60;75.40
5775;DHT22;2913;51.120;6.772;2023-06-19T11:44:10;29.70;73.90
5775;DHT22;2913;51.120;6.772;2023-06-19T11:46:40;29.40;74.20
5775;DHT22;2913;51.120;6.772;2023-06-19T11:49:17;29.60;73.80
5775;DHT22;2913;51.120;6.772;2023-06-19T11:51:44;29.70;72.90
5775;DHT22;2913;51.120;6.772;2023-06-19T11:54:15;29.60;73.50
5775;DHT22;2913;51.120;6.772;2023-06-19T11:56:44;29.60;72.80
5775;DHT22;2913;51.120;6.772;2023-06-19T11:59:15;29.80;72.90
5775;DHT22;2913;51.120;6.772;2023-06-19T12:01:45;29.80;71.80
5775;DHT22;2913;51.120;6.772;2023-06-19T12:04:10;29.70;68.50
5775;DHT22;2913;51.120;6.772;2023-06-19T12:06:37;29.70;68.90
5775;DHT22;2913;51.120;6.772;2023-06-19T12:09:07;29.70;69.20
5775;DHT22;2913;51.120;6.772;2023-06-19T12:11:35;30.00;69.80
5775;DHT22;2913;51.120;6.772;2023-06-19T12:14:01;29.90;69.40
5775;DHT22;2913;51.120;6.772;2023-06-19T12:16:29;29.80;69.00
5775;DHT22;2913;51.120;6.772;2023-06-19T12:18:57;29.70;68.20
5775;DHT22;2913;51.120;6.772;2023-06-19T12:21:25;29.70;68.20
5775;DHT22;2913;51.120;6.772;2023-06-19T12:23:50;29.90;66.20
5775;DHT22;2913;51.120;6.772;2023-06-19T12:26:19;30.00;65.50
5775;DHT22;2913;51.120;6.772;2023-06-19T12:28:45;30.10;66.90
5775;DHT22;2913;51.120;6.772;2023-06-19T12:31:10;29.90;67.00
5775;DHT22;2913;51.120;6.772;2023-06-19T12:33:36;30.00;67.30
5775;DHT22;2913;51.120;6.772;2023-06-19T12:36:04;30.30;67.20
5775;DHT22;2913;51.120;6.772;2023-06-19T12:38:31;30.30;68.20
5775;DHT22;2913;51.120;6.772;2023-06-19T12:40:57;30.30;67.70
5775;DHT22;2913;51.120;6.772;2023-06-19T12:43:22;30.10;67.50
5775;DHT22;2913;51.120;6.772;2023-06-19T12:45:48;30.10;68.00
5775;DHT22;2913;51.120;6.772;2023-06-19T12:48:13;30.10;68.30
5775;DHT22;2913;51.120;6.772;2023-06-19T12:50:42;30.00;66.10
5775;DHT22;2913;51.120;6.772;2023-06-19T12:53:08;30.00;66.50
5775;DHT22;2913;51.120;6.772;2023-06-19T12:55:33;29.90;66.60
5775;DHT22;2913;51.120;6.772;2023-06-19T12:57:59;30.10;67.10
5775;DHT22;2913;51.120;6.772;2023-06-19T13:00:27;30.30;67.20
5775;DHT22;2913;51.120;6.772;2023-06-19T13:02:55;30.30;66.80
5775;DHT22;2913;51.120;6.772;2023-06-19T13:05:20;30.50;66.00
5775;DHT22;2913;51.120;6.772;2023-06-19T13:07:46;30.60;65.80
5775;DHT22;2913;51.120;6.772;2023-06-19T13:10:12;30.80;65.50
5775;DHT22;2913;51.120;6.772;2023-06-19T13:12:40;30.80;64.30
5775;DHT22;2913;51.120;6.772;2023-06-19T13:15:06;30.80;64.40
5775;DHT22;2913;51.120;6.772;2023-06-19T13:17:32;30.90;64.40
5775;DHT22;2913;51.120;6.772;2023-06-19T13:20:00;30.70;64.00
5775;DHT22;2913;51.120;6.772;2023-06-19T13:22:28;30.50;65.20
5775;DHT22;2913;51.120;6.772;2023-06-19T13:24:59;30.50;64.30
5775;DHT22;2913;51.120;6.772;2023-06-19T13:27:27;30.60;64.70
5775;DHT22;2913;51.120;6.772;2023-06-19T13:29:56;30.70;64.90
5775;DHT22;2913;51.120;6.772;2023-06-19T13:32:22;30.90;64.40
5775;DHT22;2913;51.120;6.772;2023-06-19T13:34:50;30.90;64.80
5775;DHT22;2913;51.120;6.772;2023-06-19T13:37:18;31.00;65.20
5775;DHT22;2913;51.120;6.772;2023-06-19T13:39:43;30.90;65.10
5775;DHT22;2913;51.120;6.772;2023-06-19T13:42:12;30.80;64.40
5775;DHT22;2913;51.120;6.772;2023-06-19T13:44:38;30.80;65.80
5775;DHT22;2913;51.120;6.772;2023-06-19T13:47:04;30.90;65.40
5775;DHT22;2913;51.120;6.772;2023-06-19T13:49:32;30.80;65.00
5775;DHT22;2913;51.120;6.772;2023-06-19T13:52:00;30.90;65.00
5775;DHT22;2913;51.120;6.772;2023-06-19T13:54:26;30.80;65.30
5775;DHT22;2913;51.120;6.772;2023-06-19T13:56:52;30.80;65.40
5775;DHT22;2913;51.120;6.772;2023-06-19T13:59:18;30.60;65.50
5775;DHT22;2913;51.120;6.772;2023-06-19T14:01:48;30.80;65.30
5775;DHT22;2913;51.120;6.772;2023-06-19T14:04:13;30.90;64.60
5775;DHT22;2913;51.120;6.772;2023-06-19T14:06:39;30.90;65.00
5775;DHT22;2913;51.120;6.772;2023-06-19T14:09:07;31.00;64.90
5775;DHT22;2913;51.120;6.772;2023-06-19T14:11:32;31.00;63.80
5775;DHT22;2913;51.120;6.772;2023-06-19T14:13:58;30.80;63.30
5775;DHT22;2913;51.120;6.772;2023-06-19T14:16:26;30.90;64.10
5775;DHT22;2913;51.120;6.772;2023-06-19T14:18:54;30.90;64.20
5775;DHT22;2913;51.120;6.772;2023-06-19T14:21:22;30.70;63.80
5775;DHT22;2913;51.120;6.772;2023-06-19T14:23:50;30.90;64.20
5775;DHT22;2913;51.120;6.772;2023-06-19T14:26:18;30.90;63.10
5775;DHT22;2913;51.120;6.772;2023-06-19T14:28:44;30.90;63.40
5775;DHT22;2913;51.120;6.772;2023-06-19T14:31:12;31.00;63.40
5775;DHT22;2913;51.120;6.772;2023-06-19T14:33:40;30.90;63.70
5775;DHT22;2913;51.120;6.772;2023-06-19T14:36:06;30.90;63.60
5775;DHT22;2913;51.120;6.772;2023-06-19T14:38:31;30.90;63.40
5775;DHT22;2913;51.120;6.772;2023-06-19T14:41:02;31.00;63.60
5775;DHT22;2913;51.120;6.772;2023-06-19T14:43:28;31.10;62.70
5775;DHT22;2913;51.120;6.772;2023-06-19T14:45:57;31.20;63.10
5775;DHT22;2913;51.120;6.772;2023-06-19T14:48:22;31.20;62.60
5775;DHT22;2913;51.120;6.772;2023-06-19T14:50:50;31.10;62.20
5775;DHT22;2913;51.120;6.772;2023-06-19T14:53:16;31.20;62.30
5775;DHT22;2913;51.120;6.772;2023-06-19T14:55:44;31.20;62.20
5775;DHT22;2913;51.120;6.772;2023-06-19T14:58:17;31.20;62.00
5775;DHT22;2913;51.120;6.772;2023-06-19T15:00:43;31.10;62.60
5775;DHT22;2913;51.120;6.772;2023-06-19T15:03:11;31.10;61.70
5775;DHT22;2913;51.120;6.772;2023-06-19T15:05:39;31.20;61.90
5775;DHT22;2913;51.120;6.772;2023-06-19T15:08:05;30.60;60.60
5775;DHT22;2913;51.120;6.772;2023-06-19T15:10:33;30.70;62.00
5775;DHT22;2913;51.120;6.772;2023-06-19T15:13:01;30.40;62.60
5775;DHT22;2913;51.120;6.772;2023-06-19T15:15:29;30.40;62.60
5775;DHT22;2913;51.120;6.772;2023-06-19T15:17:55;30.50;63.00
5775;DHT22;2913;51.120;6.772;2023-06-19T15:20:20;30.60;63.20
5775;DHT22;2913;51.120;6.772;2023-06-19T15:22:47;30.70;63.90
5775;DHT22;2913;51.120;6.772;2023-06-19T15:27:41;30.70;62.90
5775;DHT22;2913;51.120;6.772;2023-06-19T15:30:07;30.70;63.40
5775;DHT22;2913;51.120;6.772;2023-06-19T15:32:37;30.70;62.90
5775;DHT22;2913;51.120;6.772;2023-06-19T15:35:03;30.80;63.20
5775;DHT22;2913;51.120;6.772;2023-06-19T15:37:29;30.90;63.60
5775;DHT22;2913;51.120;6.772;2023-06-19T15:39:55;30.80;61.50
5775;DHT22;2913;51.120;6.772;2023-06-19T15:42:21;30.90;62.20
5775;DHT22;2913;51.120;6.772;2023-06-19T15:44:49;30.90;62.50
5775;DHT22;2913;51.120;6.772;2023-06-19T15:47:18;30.90;62.40
5775;DHT22;2913;51.120;6.772;2023-06-19T15:49:43;30.90;61.40
5775;DHT22;2913;51.120;6.772;2023-06-19T15:52:16;30.90;61.70
5775;DHT22;2913;51.120;6.772;2023-06-19T15:54:44;30.90;61.50
5775;DHT22;2913;51.120;6.772;2023-06-19T15:57:14;30.50;61.60
5775;DHT22;2913;51.120;6.772;2023-06-19T15:59:39;30.50;62.50
5775;DHT22;2913;51.120;6.772;2023-06-19T16:02:05;30.30;61.90
5775;DHT22;2913;51.120;6.772;2023-06-19T16:04:31;30.50;62.60
5775;DHT22;2913;51.120;6.772;2023-06-19T16:06:56;30.50;62.70
5775;DHT22;2913;51.120;6.772;2023-06-19T16:09:24;30.70;63.80
5775;DHT22;2913;51.120;6.772;2023-06-19T16:11:50;30.70;62.30
5775;DHT22;2913;51.120;6.772;2023-06-19T16:14:15;30.70;62.00
5775;DHT22;2913;51.120;6.772;2023-06-19T16:16:41;30.80;62.00
5775;DHT22;2913;51.120;6.772;2023-06-19T16:19:07;30.80;61.80
5775;DHT22;2913;51.120;6.772;2023-06-19T16:21:32;30.90;61.40
5775;DHT22;2913;51.120;6.772;2023-06-19T16:24:00;30.70;61.30
5775;DHT22;2913;51.120;6.772;2023-06-19T16:26:26;30.70;61.50
5775;DHT22;2913;51.120;6.772;2023-06-19T16:28:52;30.80;61.30
5775;DHT22;2913;51.120;6.772;2023-06-19T16:31:17;30.80;61.20
5775;DHT22;2913;51.120;6.772;2023-06-19T16:33:44;30.40;61.50
5775;DHT22;2913;51.120;6.772;2023-06-19T16:36:12;30.30;62.10